createdAt,value
2019-01-24T00:00:56.788Z,57.03
2019-01-24T00:03:26.433Z,54.53
2019-01-24T00:05:56.779Z,51.93
2019-01-24T00:08:26.407Z,60.37
2019-01-24T00:10:56.045Z,48.57
2019-01-24T00:13:25.778Z,50.07
2019-01-24T00:15:55.446Z,45.63
2019-01-24T00:18:25.120Z,44.33
2019-01-24T00:20:54.837Z,48.20
2019-01-24T00:23:24.441Z,47.90
2019-01-24T00:25:54.076Z,50.73
2019-01-24T00:28:23.910Z,44.80
2019-01-24T00:30:53.544Z,45.60
2019-01-24T00:33:23.145Z,58.33
2019-01-24T00:35:52.848Z,55.63
2019-01-24T00:38:22.453Z,52.13
2019-01-24T00:40:52.374Z,52.67
2019-01-24T00:43:21.977Z,45.13
2019-01-24T00:45:51.626Z,47.00
2019-01-24T00:48:21.236Z,62.33
2019-01-24T00:50:51.049Z,51.07
2019-01-24T00:53:20.661Z,41.73
2019-01-24T00:55:50.304Z,56.50
2019-01-24T00:58:19.952Z,48.30
2019-01-24T01:00:50.277Z,62.17
2019-01-24T01:03:19.925Z,46.50
2019-01-24T01:05:49.530Z,54.37
2019-01-24T01:08:19.332Z,58.20
2019-01-24T01:10:49.010Z,50.63
2019-01-24T01:13:18.692Z,65.53
2019-01-24T01:15:48.289Z,48.03
2019-01-24T01:18:18.008Z,51.47
2019-01-24T01:20:47.618Z,55.23
2019-01-24T01:23:17.218Z,54.90
2019-01-24T01:25:46.873Z,55.27
2019-01-24T01:28:16.593Z,70.57
2019-01-24T01:30:46.944Z,49.63
2019-01-24T01:33:17.541Z,53.53
2019-01-24T01:35:47.266Z,52.70
2019-01-24T01:38:17.519Z,54.90
2019-01-24T01:40:47.449Z,59.20
2019-01-24T01:43:17.257Z,59.20
2019-01-24T01:45:47.824Z,55.43
2019-01-24T01:48:17.671Z,56.93
2019-01-24T01:50:47.288Z,58.00
2019-01-24T01:53:16.896Z,59.93
2019-01-24T01:55:46.532Z,60.03
2019-01-24T01:58:16.345Z,57.07
2019-01-24T02:00:45.990Z,43.87
2019-01-24T02:03:15.584Z,47.57
2019-01-24T02:05:45.314Z,47.53
2019-01-24T02:08:15.630Z,55.47
2019-01-24T02:10:45.254Z,61.60
2019-01-24T02:13:14.892Z,48.27
2019-01-24T02:15:44.488Z,63.33
2019-01-24T02:18:15.165Z,58.30
2019-01-24T02:20:44.938Z,56.03
2019-01-24T02:23:14.528Z,54.47
2019-01-24T02:25:44.483Z,62.57
2019-01-24T02:28:14.076Z,58.13
2019-01-24T02:30:43.682Z,55.37
2019-01-24T02:33:13.422Z,52.67
2019-01-24T02:35:43.746Z,61.70
2019-01-24T02:38:13.464Z,56.17
2019-01-24T02:40:43.253Z,56.37
2019-01-24T02:43:13.042Z,55.30
2019-01-24T02:45:42.978Z,67.07
2019-01-24T02:48:12.613Z,53.33
2019-01-24T02:50:42.243Z,60.03
2019-01-24T02:53:11.901Z,49.33
2019-01-24T02:55:41.710Z,61.63
2019-01-24T02:58:11.320Z,62.63
2019-01-24T03:00:41.044Z,60.10
2019-01-24T03:03:10.654Z,71.63
2019-01-24T03:05:40.989Z,57.43
2019-01-24T03:08:10.594Z,54.73
2019-01-24T03:10:40.185Z,60.43
2019-01-24T03:13:09.832Z,58.83
2019-01-24T03:15:39.493Z,54.53
2019-01-24T03:18:09.102Z,66.00
2019-01-24T03:20:38.854Z,66.17
2019-01-24T03:23:10.194Z,58.87
2019-01-24T03:25:39.789Z,59.83
2019-01-24T03:28:09.438Z,54.23
2019-01-24T03:30:39.149Z,56.30
2019-01-24T03:33:08.814Z,66.83
2019-01-24T03:35:38.420Z,60.90
2019-01-24T03:38:08.057Z,65.30
2019-01-24T03:40:37.816Z,63.73
2019-01-24T03:43:07.452Z,64.90
2019-01-24T03:45:37.058Z,60.23
2019-01-24T03:48:06.692Z,48.13
2019-01-24T03:50:36.307Z,64.30
2019-01-24T03:53:05.906Z,58.47
2019-01-24T03:55:35.963Z,76.27
2019-01-24T03:58:05.565Z,66.17
2019-01-24T04:00:35.200Z,71.87
2019-01-24T04:03:04.813Z,72.27
2019-01-24T04:05:34.461Z,69.73
2019-01-24T04:08:04.788Z,75.27
2019-01-24T04:10:34.386Z,63.10
2019-01-24T04:13:04.177Z,72.33
2019-01-24T04:15:33.887Z,69.00
2019-01-24T04:18:03.544Z,71.50
2019-01-24T04:20:33.174Z,72.13
2019-01-24T04:23:02.943Z,65.13
2019-01-24T04:25:32.578Z,62.73
2019-01-24T04:28:02.182Z,82.57
2019-01-24T04:30:31.881Z,60.87
2019-01-24T04:33:01.529Z,73.37
2019-01-24T04:35:31.158Z,62.27
2019-01-24T04:38:00.790Z,62.23
2019-01-24T04:40:30.542Z,70.33
2019-01-24T04:43:00.180Z,65.70
2019-01-24T04:45:29.822Z,68.30
2019-01-24T04:47:59.487Z,73.60
2019-01-24T04:50:29.190Z,70.03
2019-01-24T04:52:59.177Z,68.37
2019-01-24T04:55:28.878Z,51.83
2019-01-24T04:57:58.572Z,75.80
2019-01-24T05:00:29.927Z,69.90
2019-01-24T05:02:59.549Z,70.37
2019-01-24T05:05:30.174Z,65.83
2019-01-24T05:07:59.770Z,73.93
2019-01-24T05:10:29.437Z,75.00
2019-01-24T05:12:59.123Z,63.17
2019-01-24T05:15:29.522Z,73.93
2019-01-24T05:17:59.497Z,79.73
2019-01-24T05:20:29.241Z,77.73
2019-01-24T05:22:58.895Z,81.03
2019-01-24T05:25:28.539Z,77.77
2019-01-24T05:27:58.169Z,75.80
2019-01-24T05:30:27.969Z,82.60
2019-01-24T05:32:57.712Z,87.00
2019-01-24T05:35:34.321Z,84.27
2019-01-24T05:37:58.610Z,75.33
2019-01-24T05:40:28.516Z,70.87
2019-01-24T05:42:58.110Z,71.80
2019-01-24T05:45:27.704Z,66.87
2019-01-24T05:47:57.359Z,64.87
2019-01-24T05:50:27.058Z,63.27
2019-01-24T05:52:56.784Z,73.53
2019-01-24T05:55:26.621Z,69.93
2019-01-24T05:57:56.229Z,73.67
2019-01-24T06:00:27.602Z,65.97
2019-01-24T06:02:57.401Z,69.07
2019-01-24T06:05:27.041Z,63.57
2019-01-24T06:07:56.686Z,71.23
2019-01-24T06:10:26.330Z,74.67
2019-01-24T06:12:56.080Z,73.60
2019-01-24T06:15:26.039Z,66.40
2019-01-24T06:17:55.790Z,76.33
2019-01-24T06:20:25.442Z,71.70
2019-01-24T06:22:55.853Z,77.63
2019-01-24T06:25:25.596Z,63.80
2019-01-24T06:27:55.341Z,70.10
2019-01-24T06:30:25.342Z,79.13
2019-01-24T06:32:54.989Z,81.47
2019-01-24T06:35:25.005Z,74.10
2019-01-24T06:37:54.663Z,76.57
2019-01-24T06:40:24.325Z,75.73
2019-01-24T06:42:53.978Z,67.30
2019-01-24T06:45:23.602Z,66.50
2019-01-24T06:47:53.301Z,77.03
2019-01-24T06:50:23.002Z,67.90
2019-01-24T06:52:52.718Z,72.20
2019-01-24T06:55:27.082Z,72.37
2019-01-24T06:57:56.761Z,64.73
2019-01-24T07:00:26.434Z,66.30
2019-01-24T07:02:56.199Z,71.23
2019-01-24T07:05:25.828Z,74.40
2019-01-24T07:07:55.490Z,72.80
2019-01-24T07:10:25.426Z,74.93
2019-01-24T07:12:55.101Z,74.80
2019-01-24T07:15:24.918Z,69.87
2019-01-24T07:17:54.560Z,70.00
2019-01-24T07:20:24.417Z,70.50
2019-01-24T07:22:54.061Z,74.60
2019-01-24T07:25:25.652Z,72.57
2019-01-24T07:27:55.288Z,72.57
2019-01-24T07:30:25.081Z,82.30
2019-01-24T07:32:54.850Z,73.73
2019-01-24T07:35:24.521Z,83.23
2019-01-24T07:37:54.198Z,79.20
2019-01-24T07:40:24.025Z,65.17
2019-01-24T07:42:53.689Z,67.07
2019-01-24T07:45:26.728Z,67.67
2019-01-24T07:47:56.679Z,65.33
2019-01-24T07:50:26.368Z,85.17
2019-01-24T07:52:56.124Z,78.43
2019-01-24T07:55:25.756Z,70.03
2019-01-24T07:57:56.081Z,78.90
2019-01-24T08:00:28.265Z,67.07
2019-01-24T08:02:58.165Z,66.63
2019-01-24T08:05:29.713Z,71.57
2019-01-24T08:07:59.634Z,63.77
2019-01-24T08:10:30.249Z,70.60
2019-01-24T08:12:59.910Z,71.47
2019-01-24T08:15:29.717Z,78.60
2019-01-24T08:17:59.377Z,79.57
2019-01-24T08:20:29.186Z,65.07
2019-01-24T08:22:58.847Z,68.90
2019-01-24T08:25:28.476Z,79.80
2019-01-24T08:27:58.195Z,67.10
2019-01-24T08:30:29.858Z,62.03
2019-01-24T08:32:59.783Z,81.13
2019-01-24T08:35:29.584Z,72.83
2019-01-24T08:37:59.240Z,70.90
2019-01-24T08:40:28.901Z,82.53
2019-01-24T08:42:58.673Z,68.20
2019-01-24T08:45:28.313Z,71.47
2019-01-24T08:47:58.278Z,72.27
2019-01-24T08:50:28.969Z,82.87
2019-01-24T08:52:58.723Z,65.50
2019-01-24T08:55:37.052Z,72.73
2019-01-24T08:58:06.690Z,80.03
2019-01-24T09:00:36.508Z,67.37
2019-01-24T09:03:06.345Z,58.83
2019-01-24T09:05:36.717Z,77.80
2019-01-24T09:08:07.034Z,61.23
2019-01-24T09:10:37.713Z,83.10
2019-01-24T09:13:07.429Z,70.23
2019-01-24T09:15:37.218Z,64.83
2019-01-24T09:18:06.986Z,65.50
2019-01-24T09:20:36.700Z,55.77
2019-01-24T09:23:06.433Z,56.00
2019-01-24T09:25:36.164Z,55.67
2019-01-24T09:28:05.804Z,68.27
2019-01-24T09:30:35.548Z,70.67
2019-01-24T09:33:05.192Z,59.97
2019-01-24T09:35:35.512Z,51.23
2019-01-24T09:38:05.179Z,64.97
2019-01-24T09:40:34.899Z,64.20
2019-01-24T09:43:04.541Z,61.00
2019-01-24T09:45:34.361Z,54.43
2019-01-24T09:48:04.297Z,58.90
2019-01-24T09:50:33.977Z,56.47
2019-01-24T09:53:03.676Z,65.50
2019-01-24T09:55:33.590Z,66.60
2019-01-24T09:58:03.209Z,119.07
2019-01-24T10:00:34.306Z,66.67
2019-01-24T10:03:04.728Z,60.57
2019-01-24T10:05:34.566Z,65.77
2019-01-24T10:08:04.202Z,59.93
2019-01-24T10:10:33.922Z,48.00
2019-01-24T10:13:03.710Z,54.07
2019-01-24T10:15:33.527Z,58.47
2019-01-24T10:18:03.193Z,65.03
2019-01-24T10:20:33.633Z,64.07
2019-01-24T10:23:03.345Z,57.60
2019-01-24T10:25:34.961Z,63.80
2019-01-24T10:28:04.721Z,59.93
2019-01-24T10:30:34.441Z,60.87
2019-01-24T10:33:04.114Z,60.17
2019-01-24T10:35:33.889Z,66.17
2019-01-24T10:38:03.513Z,57.63
2019-01-24T10:40:33.405Z,60.93
2019-01-24T10:43:03.125Z,63.57
2019-01-24T10:45:32.760Z,55.63
2019-01-24T10:48:03.101Z,61.43
2019-01-24T10:50:32.768Z,61.10
2019-01-24T10:53:02.413Z,54.30
2019-01-24T10:55:32.325Z,62.50
2019-01-24T10:58:02.080Z,62.83
2019-01-24T11:00:37.760Z,60.17
2019-01-24T11:03:09.937Z,71.87
2019-01-24T11:05:40.778Z,69.20
2019-01-24T11:08:10.453Z,62.57
2019-01-24T11:10:40.297Z,60.93
2019-01-24T11:13:10.642Z,65.27
2019-01-24T11:15:40.558Z,70.23
2019-01-24T11:18:10.432Z,50.60
2019-01-24T11:20:40.257Z,62.13
2019-01-24T11:23:09.899Z,53.70
2019-01-24T11:25:39.596Z,55.67
2019-01-24T11:28:09.380Z,66.97
2019-01-24T11:30:39.290Z,63.20
2019-01-24T11:33:08.970Z,54.50
2019-01-24T11:35:38.800Z,74.90
2019-01-24T11:38:08.561Z,53.53
2019-01-24T11:40:38.473Z,59.43
2019-01-24T11:43:08.319Z,49.77
2019-01-24T11:45:40.159Z,49.80
2019-01-24T11:48:09.784Z,64.80
2019-01-24T11:50:39.622Z,59.30
2019-01-24T11:53:09.421Z,47.17
2019-01-24T11:55:39.057Z,60.40
2019-01-24T11:58:08.688Z,55.33
2019-01-24T12:00:40.665Z,56.33
2019-01-24T12:05:50.174Z,65.03
2019-01-24T12:08:19.934Z,50.97
2019-01-24T12:10:49.582Z,49.47
2019-01-24T12:13:19.318Z,53.77
2019-01-24T12:15:48.956Z,60.87
2019-01-24T12:18:18.690Z,54.97
2019-01-24T12:20:48.334Z,61.83
2019-01-24T12:23:17.957Z,58.70
2019-01-24T12:25:47.774Z,52.80
2019-01-24T12:28:17.516Z,59.53
2019-01-24T12:30:47.221Z,51.47
2019-01-24T12:33:16.936Z,43.40
2019-01-24T12:35:47.330Z,51.10
2019-01-24T12:38:17.139Z,48.07
2019-01-24T12:40:46.745Z,55.93
2019-01-24T12:43:16.437Z,48.97
2019-01-24T12:45:46.077Z,50.00
2019-01-24T12:48:16.249Z,51.57
2019-01-24T12:50:45.894Z,49.10
2019-01-24T12:53:15.673Z,44.70
2019-01-24T12:55:45.305Z,45.13
2019-01-24T12:58:14.942Z,55.63
2019-01-24T13:00:44.567Z,46.73
2019-01-24T13:03:14.298Z,75.33
2019-01-24T13:05:44.112Z,47.90
2019-01-24T13:08:13.835Z,54.43
2019-01-24T13:10:43.473Z,49.50
2019-01-24T13:13:13.175Z,55.40
2019-01-24T13:15:42.902Z,57.67
2019-01-24T13:18:12.681Z,56.30
2019-01-24T13:20:42.549Z,56.90
2019-01-24T13:23:12.266Z,60.17
2019-01-24T13:25:42.073Z,51.80
2019-01-24T13:28:11.863Z,56.87
2019-01-24T13:30:41.637Z,58.53
2019-01-24T13:33:11.286Z,48.57
2019-01-24T13:35:40.962Z,49.63
2019-01-24T13:38:10.838Z,62.40
2019-01-24T13:40:40.483Z,45.07
2019-01-24T13:43:10.178Z,48.57
2019-01-24T13:45:39.849Z,54.37
2019-01-24T13:48:09.482Z,51.77
2019-01-24T13:50:39.149Z,56.27
2019-01-24T13:53:09.046Z,50.80
2019-01-24T13:55:39.542Z,49.20
2019-01-24T13:58:10.354Z,51.17
2019-01-24T14:00:40.017Z,57.63
2019-01-24T14:03:15.712Z,41.63
2019-01-24T14:05:45.552Z,51.07
2019-01-24T14:08:15.385Z,48.30
2019-01-24T14:10:45.126Z,57.83
2019-01-24T14:13:14.841Z,52.10
2019-01-24T14:15:44.529Z,59.57
2019-01-24T14:18:15.159Z,53.40
2019-01-24T14:20:44.902Z,54.63
2019-01-24T14:23:14.762Z,48.57
2019-01-24T14:25:44.880Z,58.80
2019-01-24T14:28:14.581Z,53.13
2019-01-24T14:30:45.037Z,41.60
2019-01-24T14:33:15.507Z,54.23
2019-01-24T14:35:45.365Z,48.23
2019-01-24T14:38:15.281Z,46.90
2019-01-24T14:40:44.908Z,48.00
2019-01-24T14:43:14.583Z,47.23
2019-01-24T14:45:44.321Z,44.97
2019-01-24T14:48:14.203Z,57.63
2019-01-24T14:50:43.928Z,53.57
2019-01-24T14:53:13.625Z,47.37
2019-01-24T14:55:43.294Z,61.53
2019-01-24T14:58:13.144Z,56.40
2019-01-24T15:00:46.024Z,49.20
2019-01-24T15:03:15.732Z,53.93
2019-01-24T15:05:45.458Z,46.53
2019-01-24T15:08:16.150Z,50.13
2019-01-24T15:10:45.857Z,52.30
2019-01-24T15:13:15.565Z,52.10
2019-01-24T15:15:45.182Z,50.80
2019-01-24T15:18:14.823Z,34.67
2019-01-24T15:20:44.454Z,46.87
2019-01-24T15:23:14.085Z,45.60
2019-01-24T15:25:43.761Z,54.57
2019-01-24T15:28:13.492Z,60.03
2019-01-24T15:30:43.138Z,60.13
2019-01-24T15:33:12.932Z,60.40
2019-01-24T15:35:42.742Z,67.50
2019-01-24T15:38:12.394Z,104.70
2019-01-24T15:40:42.029Z,70.80
2019-01-24T15:43:11.747Z,57.90
2019-01-24T15:45:41.572Z,59.10
2019-01-24T15:48:11.398Z,62.23
2019-01-24T15:50:41.074Z,56.07
2019-01-24T15:53:10.771Z,50.47
2019-01-24T15:55:40.437Z,67.60
2019-01-24T15:58:10.153Z,58.50
2019-01-24T16:00:39.788Z,57.90
2019-01-24T16:03:09.568Z,65.33
2019-01-24T16:05:39.391Z,53.97
2019-01-24T16:08:09.021Z,53.33
2019-01-24T16:10:38.935Z,65.20
2019-01-24T16:13:08.842Z,58.00
2019-01-24T16:15:39.746Z,55.93
2019-01-24T16:18:09.446Z,53.47
2019-01-24T16:20:39.078Z,58.50
2019-01-24T16:23:08.966Z,56.40
2019-01-24T16:25:38.777Z,54.53
2019-01-24T16:28:08.500Z,62.67
2019-01-24T16:30:38.346Z,59.30
2019-01-24T16:33:08.230Z,56.37
2019-01-24T16:35:37.861Z,60.70
2019-01-24T16:38:09.454Z,65.57
2019-01-24T16:40:38.876Z,58.50
2019-01-24T16:43:09.522Z,54.73
2019-01-24T16:45:39.156Z,59.90
2019-01-24T16:48:08.837Z,61.90
2019-01-24T16:50:38.526Z,63.77
2019-01-24T16:53:09.137Z,61.43
2019-01-24T16:55:38.918Z,68.17
2019-01-24T16:58:08.650Z,64.40
2019-01-24T17:00:43.998Z,77.53
2019-01-24T17:03:14.745Z,63.13
2019-01-24T17:05:44.577Z,61.97
2019-01-24T17:08:16.675Z,65.93
2019-01-24T17:10:45.653Z,48.53
2019-01-24T17:13:15.290Z,70.60
2019-01-24T17:15:44.882Z,62.10
2019-01-24T17:18:14.478Z,61.27
2019-01-24T17:20:44.260Z,62.70
2019-01-24T17:23:13.908Z,61.17
2019-01-24T17:25:43.734Z,60.27
2019-01-24T17:28:13.428Z,60.10
2019-01-24T17:30:43.150Z,67.17
2019-01-24T17:33:12.781Z,65.63
2019-01-24T17:35:42.456Z,68.20
2019-01-24T17:38:12.097Z,55.50
2019-01-24T17:40:41.782Z,67.13
2019-01-24T17:43:11.630Z,69.73
2019-01-24T17:45:41.288Z,65.17
2019-01-24T17:48:10.985Z,65.87
2019-01-24T17:50:40.650Z,58.10
2019-01-24T17:53:10.294Z,62.17
2019-01-24T17:55:42.593Z,69.40
2019-01-24T17:58:12.213Z,63.50
2019-01-24T18:00:43.641Z,70.23
2019-01-24T18:03:13.942Z,65.40
2019-01-24T18:05:43.725Z,65.80
2019-01-24T18:08:14.110Z,61.97
2019-01-24T18:10:43.693Z,60.10
2019-01-24T18:13:13.289Z,68.93
2019-01-24T18:15:43.022Z,64.63
2019-01-24T18:18:13.620Z,59.73
2019-01-24T18:20:43.337Z,54.53
2019-01-24T18:23:12.924Z,60.27
2019-01-24T18:25:42.715Z,72.53
2019-01-24T18:28:12.414Z,56.17
2019-01-24T18:30:42.194Z,62.87
2019-01-24T18:33:11.852Z,64.47
2019-01-24T18:35:41.494Z,76.53
2019-01-24T18:38:11.186Z,66.40
2019-01-24T18:40:40.786Z,65.97
2019-01-24T18:43:13.769Z,67.63
2019-01-24T18:45:51.466Z,79.80
2019-01-24T18:48:21.793Z,63.00
2019-01-24T18:50:51.442Z,73.70
2019-01-24T18:53:21.028Z,73.23
2019-01-24T18:55:50.663Z,72.30
2019-01-24T18:58:20.462Z,79.87
2019-01-24T19:00:50.058Z,76.77
2019-01-24T19:03:20.374Z,73.47
2019-01-24T19:05:50.175Z,70.50
2019-01-24T19:08:19.833Z,78.77
2019-01-24T19:10:49.436Z,77.77
2019-01-24T19:13:20.070Z,66.67
2019-01-24T19:15:49.785Z,59.40
2019-01-24T19:18:19.455Z,77.27
2019-01-24T19:20:49.085Z,69.53
2019-01-24T19:23:18.677Z,67.03
2019-01-24T19:25:48.467Z,64.20
2019-01-24T19:28:18.054Z,69.83
2019-01-24T19:30:47.705Z,67.40
2019-01-24T19:33:17.629Z,72.17
2019-01-24T19:35:47.234Z,78.47
2019-01-24T19:38:16.954Z,81.00
2019-01-24T19:40:46.590Z,67.23
2019-01-24T19:43:16.220Z,72.67
2019-01-24T19:45:46.017Z,65.93
2019-01-24T19:48:16.495Z,80.33
2019-01-24T19:50:46.213Z,73.30
2019-01-24T19:53:15.800Z,71.27
2019-01-24T19:55:45.442Z,77.80
2019-01-24T19:58:15.110Z,72.63
2019-01-24T20:00:45.014Z,60.30
2019-01-24T20:03:14.608Z,64.47
2019-01-24T20:05:44.414Z,69.47
2019-01-24T20:08:14.070Z,67.50
2019-01-24T20:10:43.777Z,65.93
2019-01-24T20:13:13.554Z,71.30
2019-01-24T20:15:43.198Z,73.90
2019-01-24T20:18:12.841Z,72.90
2019-01-24T20:20:42.434Z,76.70
2019-01-24T20:23:12.079Z,67.23
2019-01-24T20:25:41.945Z,65.67
2019-01-24T20:28:11.581Z,83.90
2019-01-24T20:30:41.317Z,80.43
2019-01-24T20:33:10.957Z,69.73
2019-01-24T20:35:49.441Z,80.50
2019-01-24T20:38:19.108Z,77.83
2019-01-24T20:40:48.736Z,71.37
2019-01-24T20:43:18.654Z,69.30
2019-01-24T20:45:48.970Z,72.80
2019-01-24T20:48:18.612Z,72.63
2019-01-24T20:50:48.361Z,87.97
2019-01-24T20:53:17.955Z,69.43
2019-01-24T20:55:47.654Z,78.00
2019-01-24T20:58:17.354Z,78.43
2019-01-24T21:00:46.977Z,73.10
2019-01-24T21:03:17.534Z,75.13
2019-01-24T21:05:47.129Z,71.17
2019-01-24T21:08:16.750Z,81.47
2019-01-24T21:10:46.404Z,70.80
2019-01-24T21:13:16.188Z,60.03
2019-01-24T21:15:45.879Z,69.23
2019-01-24T21:18:15.522Z,83.10
2019-01-24T21:20:45.168Z,82.93
2019-01-24T21:23:14.888Z,65.93
2019-01-24T21:25:44.521Z,73.00
2019-01-24T21:28:14.400Z,69.70
2019-01-24T21:30:44.026Z,75.93
2019-01-24T21:33:13.610Z,71.10
2019-01-24T21:35:43.223Z,82.20
2019-01-24T21:38:12.851Z,87.27
2019-01-24T21:40:42.490Z,75.03
2019-01-24T21:43:12.186Z,80.90
2019-01-24T21:45:41.768Z,63.73
2019-01-24T21:48:11.361Z,79.70
2019-01-24T21:50:41.207Z,79.53
2019-01-24T21:53:11.046Z,74.90
2019-01-24T21:55:40.636Z,90.17
2019-01-24T21:58:10.220Z,82.10
2019-01-24T22:00:39.932Z,78.50
2019-01-24T22:03:09.731Z,80.97
2019-01-24T22:05:40.150Z,92.33
2019-01-24T22:08:09.853Z,74.53
2019-01-24T22:10:39.556Z,84.03
2019-01-24T22:13:09.253Z,86.27
2019-01-24T22:15:38.885Z,87.90
2019-01-24T22:18:08.676Z,74.13
2019-01-24T22:20:38.966Z,92.43
2019-01-24T22:23:08.548Z,85.63
2019-01-24T22:25:38.390Z,85.03
2019-01-24T22:28:08.026Z,87.33
2019-01-24T22:30:42.048Z,85.53
2019-01-24T22:33:11.640Z,75.43
2019-01-24T22:35:41.561Z,74.30
2019-01-24T22:38:11.584Z,73.70
2019-01-24T22:40:41.222Z,85.03
2019-01-24T22:43:11.825Z,79.73
2019-01-24T22:45:41.549Z,85.53
2019-01-24T22:48:11.184Z,80.43
2019-01-24T22:50:40.824Z,87.80
2019-01-24T22:53:10.528Z,85.87
2019-01-24T22:55:40.196Z,69.10
2019-01-24T22:58:09.869Z,86.90
2019-01-24T23:00:47.515Z,80.33
2019-01-24T23:03:27.616Z,84.80
2019-01-24T23:05:57.208Z,96.53
2019-01-24T23:08:26.812Z,88.43
2019-01-24T23:10:56.783Z,90.03
2019-01-24T23:13:26.435Z,89.20
2019-01-24T23:15:56.148Z,80.53
2019-01-24T23:18:25.781Z,78.70
2019-01-24T23:20:55.409Z,81.40
2019-01-24T23:23:25.005Z,85.23
2019-01-24T23:25:54.593Z,86.00
2019-01-24T23:28:24.502Z,79.57
2019-01-24T23:30:54.093Z,83.67
2019-01-24T23:33:23.763Z,89.57
2019-01-24T23:35:53.418Z,80.33
2019-01-24T23:38:23.014Z,80.57
2019-01-24T23:40:52.614Z,81.47
2019-01-24T23:43:22.482Z,84.60
2019-01-24T23:45:52.166Z,89.80
2019-01-24T23:48:21.966Z,83.00
2019-01-24T23:50:51.597Z,63.70
2019-01-24T23:53:21.226Z,89.60
2019-01-24T23:55:50.954Z,79.90
2019-01-24T23:58:20.634Z,85.13
